Time;durP1;ratioP1;P1;durP2;ratioP2;P2;SDS_P1;SDS_P2;PMS_P1;PMS_P2;Temp;Humidity;BMP_temperature;BMP_pressure;BME280_temperature;BME280_humidity;BME280_pressure;Samples;Min_cycle;Max_cycle;Signal;HPM_P1;HPM_P2
2024/04/03 00:00:55;;;;;;;1.50;1.00;;;11.20;98.20;;;;;;4921605;28;21023;-79
2024/04/03 00:03:21;;;;;;;1.50;1.10;;;11.20;98.20;;;;;;4932947;29;20318;-79
2024/04/03 00:05:48;;;;;;;1.50;1.10;;;11.10;98.20;;;;;;4917931;29;20535;-79
2024/04/03 00:08:14;;;;;;;1.50;1.07;;;11.20;98.20;;;;;;4931606;29;20476;-79
2024/04/03 00:10:41;;;;;;;1.50;1.20;;;11.20;98.20;;;;;;4929336;29;20490;-79
2024/04/03 00:13:06;;;;;;;1.50;1.10;;;11.20;98.20;;;;;;4911946;29;20247;-79
2024/04/03 00:15:33;;;;;;;1.50;1.00;;;11.20;98.20;;;;;;4927171;29;20472;-79
2024/04/03 00:18:00;;;;;;;1.50;1.00;;;11.20;98.20;;;;;;4914266;28;20229;-79
2024/04/03 00:20:27;;;;;;;1.50;1.10;;;11.20;98.20;;;;;;4929303;29;20491;-79
2024/04/03 00:22:53;;;;;;;1.50;1.00;;;11.20;98.20;;;;;;4916530;29;20498;-79
2024/04/03 00:25:19;;;;;;;1.50;1.00;;;11.20;98.20;;;;;;4927651;29;20865;-79
2024/04/03 00:27:45;;;;;;;1.50;1.20;;;11.20;98.20;;;;;;4914973;29;20232;-80
2024/04/03 00:30:12;;;;;;;1.50;1.00;;;11.20;98.20;;;;;;4928602;29;20479;-79
2024/04/03 00:32:38;;;;;;;1.50;1.20;;;11.20;98.20;;;;;;4919533;29;20602;-79
2024/04/03 00:35:07;;;;;;;1.50;1.20;;;11.10;98.20;;;;;;4929061;29;20527;-79
2024/04/03 00:37:35;;;;;;;1.50;1.07;;;11.20;98.20;;;;;;4905784;29;20682;-79
2024/04/03 00:40:02;;;;;;;1.50;1.07;;;11.10;98.20;;;;;;4926378;29;21032;-79
2024/04/03 00:42:28;;;;;;;1.50;1.10;;;11.20;98.20;;;;;;4913014;29;20523;-80
2024/04/03 00:44:54;;;;;;;1.50;1.10;;;11.10;98.20;;;;;;4927100;29;20507;-80
2024/04/03 00:47:21;;;;;;;1.50;1.10;;;11.20;98.20;;;;;;4908858;29;20232;-79
2024/04/03 00:49:49;;;;;;;1.50;1.10;;;11.10;98.20;;;;;;4926257;29;20468;-79
2024/04/03 00:52:17;;;;;;;1.50;1.00;;;11.10;98.20;;;;;;4909113;29;20493;-79
2024/04/03 00:54:46;;;;;;;1.50;1.00;;;11.10;98.20;;;;;;4925740;29;20549;-80
2024/04/03 00:57:13;;;;;;;1.50;1.20;;;11.10;98.20;;;;;;4914843;29;20509;-79
2024/04/03 00:59:40;;;;;;;1.50;1.10;;;11.10;98.20;;;;;;4925845;29;20472;-79
2024/04/03 01:02:07;;;;;;;1.50;1.10;;;11.10;98.20;;;;;;4901594;29;20487;-79
2024/04/03 01:04:33;;;;;;;1.50;1.10;;;11.10;98.20;;;;;;4917390;29;20476;-79
2024/04/03 01:07:02;;;;;;;1.50;1.07;;;11.10;98.20;;;;;;4907072;29;20527;-79
2024/04/03 01:09:30;;;;;;;1.50;1.13;;;11.10;98.20;;;;;;4928717;29;20857;-79
2024/04/03 01:11:56;;;;;;;1.50;1.10;;;11.10;98.20;;;;;;4908524;29;20484;-80
2024/04/03 01:14:23;;;;;;;1.50;1.00;;;11.10;98.20;;;;;;4922228;29;20470;-80
2024/04/03 01:16:49;;;;;;;1.50;1.10;;;11.10;98.20;;;;;;4912912;29;20501;-79
2024/04/03 01:19:16;;;;;;;1.50;1.10;;;11.10;98.20;;;;;;4929157;29;20475;-79
2024/04/03 01:21:42;;;;;;;1.50;1.00;;;11.10;98.20;;;;;;4918269;29;20611;-79
2024/04/03 01:24:10;;;;;;;1.50;1.10;;;11.10;98.20;;;;;;4928385;29;20483;-80
2024/04/03 01:26:36;;;;;;;1.50;1.03;;;11.10;98.20;;;;;;4913689;29;20229;-80
2024/04/03 01:29:03;;;;;;;1.50;1.10;;;11.10;98.20;;;;;;4919714;29;20468;-80
2024/04/03 01:31:29;;;;;;;1.50;1.00;;;11.10;98.20;;;;;;4918977;29;20234;-79
2024/04/03 01:33:55;;;;;;;1.50;1.10;;;11.00;98.20;;;;;;4924976;29;20578;-80
2024/04/03 01:36:21;;;;;;;1.50;1.10;;;11.10;98.20;;;;;;4918781;29;20276;-79
2024/04/03 01:38:48;;;;;;;1.50;1.10;;;11.00;98.20;;;;;;4930263;29;20479;-79
2024/04/03 01:41:16;;;;;;;1.50;1.10;;;11.00;98.20;;;;;;4928450;29;20631;-79
2024/04/03 01:43:43;;;;;;;1.50;1.10;;;11.00;98.20;;;;;;4936728;29;20526;-79
2024/04/03 01:46:09;;;;;;;1.50;1.10;;;11.00;98.20;;;;;;4926709;29;20496;-79
2024/04/03 01:48:35;;;;;;;1.50;1.10;;;11.00;98.20;;;;;;4933839;29;20876;-80
2024/04/03 01:51:05;;;;;;;1.50;1.00;;;11.00;98.20;;;;;;4929924;29;20206;-79
2024/04/03 01:53:31;;;;;;;1.50;1.20;;;11.00;98.20;;;;;;4931403;29;20579;-79
2024/04/03 01:55:58;;;;;;;1.50;1.10;;;10.90;98.20;;;;;;4929768;29;20475;-81
2024/04/03 01:58:27;;;;;;;1.50;1.10;;;11.00;98.20;;;;;;4932271;29;20534;-79
2024/04/03 02:00:53;;;;;;;1.50;1.10;;;11.00;98.20;;;;;;4926519;29;20562;-79
2024/04/03 02:03:20;;;;;;;1.50;1.07;;;11.00;98.20;;;;;;4938729;29;20976;-79
2024/04/03 02:05:47;;;;;;;1.50;1.10;;;11.00;98.20;;;;;;4929379;29;20302;-79
2024/04/03 02:08:15;;;;;;;1.50;1.10;;;11.00;98.20;;;;;;4936820;29;20543;-79
2024/04/03 02:10:42;;;;;;;1.50;1.10;;;10.90;98.20;;;;;;4944003;29;20918;-80
2024/04/03 02:13:09;;;;;;;1.50;1.17;;;10.90;98.20;;;;;;4929522;29;20527;-80
2024/04/03 02:15:36;;;;;;;1.50;1.13;;;10.90;98.20;;;;;;4942562;29;20485;-79
2024/04/03 02:18:04;;;;;;;1.50;1.10;;;10.90;98.20;;;;;;4929005;29;20610;-80
2024/04/03 02:20:29;;;;;;;1.50;1.10;;;10.90;98.20;;;;;;4945006;29;20930;-80
2024/04/03 02:22:56;;;;;;;1.50;1.00;;;10.90;98.20;;;;;;4930832;29;20546;-79
2024/04/03 02:25:22;;;;;;;1.50;1.10;;;10.80;98.20;;;;;;4939242;29;20208;-79
2024/04/03 02:27:49;;;;;;;1.50;1.10;;;10.80;98.20;;;;;;4920699;29;20480;-80
2024/04/03 02:30:14;;;;;;;1.50;1.10;;;10.80;98.20;;;;;;4942863;29;20204;-80
2024/04/03 02:32:42;;;;;;;1.50;1.00;;;10.80;98.20;;;;;;4931876;29;20559;-80
2024/04/03 02:35:08;;;;;;;1.50;1.10;;;10.80;98.20;;;;;;4937693;29;20212;-80
2024/04/03 02:37:35;;;;;;;1.50;1.10;;;10.80;98.20;;;;;;4929753;29;20489;-79
2024/04/03 02:40:01;;;;;;;1.50;1.20;;;10.80;98.20;;;;;;4938689;29;20216;-81
2024/04/03 02:42:28;;;;;;;1.50;1.10;;;10.80;98.20;;;;;;4926620;29;20544;-79
2024/04/03 02:44:54;;;;;;;1.50;1.20;;;10.80;98.20;;;;;;4937299;29;20207;-79
2024/04/03 02:47:21;;;;;;;1.50;1.10;;;10.80;98.20;;;;;;4921374;29;20580;-79
2024/04/03 02:49:48;;;;;;;1.50;1.00;;;10.80;98.20;;;;;;4935678;29;20220;-79
2024/04/03 02:52:15;;;;;;;1.50;1.10;;;10.80;98.20;;;;;;4923138;29;20551;-79
2024/04/03 02:54:41;;;;;;;1.50;1.10;;;10.80;98.20;;;;;;4931361;29;20471;-80
2024/04/03 02:57:07;;;;;;;1.47;1.00;;;10.80;98.20;;;;;;4917567;29;20768;-80
2024/04/03 02:59:35;;;;;;;1.50;1.00;;;10.70;98.20;;;;;;4935236;29;20211;-79
2024/04/03 03:02:02;;;;;;;1.50;1.20;;;10.70;98.20;;;;;;4917199;29;20492;-80
2024/04/03 03:04:28;;;;;;;1.50;1.00;;;10.70;98.20;;;;;;4928416;29;20471;-78
2024/04/03 03:06:56;;;;;;;1.50;1.10;;;10.70;98.20;;;;;;4919404;29;20640;-79
2024/04/03 03:09:22;;;;;;;1.50;1.10;;;10.70;98.20;;;;;;4930176;29;20344;-79
2024/04/03 03:11:49;;;;;;;1.50;1.10;;;10.70;98.20;;;;;;4918274;29;20524;-79
2024/04/03 03:14:14;;;;;;;1.50;1.10;;;10.70;98.20;;;;;;4924155;29;20861;-78
2024/04/03 03:16:41;;;;;;;1.50;1.20;;;10.60;98.20;;;;;;4917803;29;20580;-79
2024/04/03 03:19:07;;;;;;;1.50;1.10;;;10.60;98.20;;;;;;4923513;29;20231;-79
2024/04/03 03:21:34;;;;;;;1.50;1.20;;;10.60;98.20;;;;;;4915683;29;20485;-78
2024/04/03 03:24:01;;;;;;;1.50;1.10;;;10.60;98.20;;;;;;4922967;29;20279;-78
2024/04/03 03:26:28;;;;;;;1.50;1.20;;;10.60;98.20;;;;;;4920965;29;20511;-79
2024/04/03 03:28:54;;;;;;;1.50;1.10;;;10.60;98.20;;;;;;4928864;29;20490;-77
2024/04/03 03:31:21;;;;;;;1.50;1.00;;;10.60;98.20;;;;;;4915718;29;23805;-79
2024/04/03 03:33:46;;;;;;;1.50;1.30;;;10.60;98.20;;;;;;4921756;29;20607;-78
2024/04/03 03:36:13;;;;;;;1.50;1.10;;;10.60;98.20;;;;;;4917674;29;20480;-78
2024/04/03 03:38:40;;;;;;;1.50;1.10;;;10.60;98.20;;;;;;4922483;29;20216;-78
2024/04/03 03:41:08;;;;;;;1.50;1.10;;;10.60;98.20;;;;;;4921170;29;20465;-77
2024/04/03 03:43:35;;;;;;;1.50;1.10;;;10.60;98.20;;;;;;4941885;23;20526;-87
2024/04/03 03:46:01;;;;;;;1.50;1.10;;;10.60;98.20;;;;;;4923555;29;20560;-88
2024/04/03 03:53:58;;;;;;;1.50;1.00;;;10.60;98.20;;;;;;4917919;29;20739;-87
2024/04/03 03:56:27;;;;;;;1.50;1.10;;;10.60;98.20;;;;;;4900625;29;20480;-88
2024/04/03 03:58:54;;;;;;;1.50;1.10;;;10.60;98.20;;;;;;4909450;29;20552;-87
2024/04/03 04:04:11;;;;;;;1.50;1.10;;;10.60;98.20;;;;;;4886818;29;20496;-88
2024/04/03 04:06:38;;;;;;;1.50;1.07;;;10.60;98.20;;;;;;4903942;29;20496;-88
2024/04/03 04:09:04;;;;;;;1.50;1.00;;;10.60;98.20;;;;;;4911232;29;20576;-90
2024/04/03 04:11:33;;;;;;;1.50;1.07;;;10.60;98.20;;;;;;4899530;29;20503;-87
2024/04/03 04:14:01;;;;;;;1.50;1.10;;;10.60;98.20;;;;;;4909573;29;21062;-86
2024/04/03 04:16:28;;;;;;;1.50;1.10;;;10.60;98.20;;;;;;4900399;29;20484;-88
2024/04/03 04:18:54;;;;;;;1.50;1.00;;;10.70;98.20;;;;;;4911654;29;20587;-87
2024/04/03 04:21:24;;;;;;;1.50;1.00;;;10.70;98.20;;;;;;4903765;29;20555;-89
2024/04/03 04:23:58;;;;;;;1.50;1.07;;;10.70;98.20;;;;;;4909996;29;20504;-87
2024/04/03 04:26:38;;;;;;;1.47;1.00;;;10.70;98.20;;;;;;4901392;29;20511;-89
2024/04/03 04:29:13;;;;;;;1.50;1.10;;;10.70;98.20;;;;;;4911187;29;20536;-88
2024/04/03 04:31:40;;;;;;;1.50;1.10;;;10.70;98.20;;;;;;4899772;29;20995;-88
2024/04/03 04:34:14;;;;;;;1.50;1.10;;;10.60;98.20;;;;;;4910932;29;20583;-88
2024/04/03 04:36:49;;;;;;;1.50;1.10;;;10.60;98.20;;;;;;4902403;29;20488;-86
2024/04/03 04:39:15;;;;;;;1.50;1.10;;;10.60;98.20;;;;;;4911840;29;20524;-87
2024/04/03 04:42:12;;;;;;;1.50;1.10;;;10.50;98.20;;;;;;4908217;29;20497;-86
2024/04/03 04:44:40;;;;;;;1.50;1.10;;;10.50;98.20;;;;;;4909422;29;20236;-86
2024/04/03 04:47:25;;;;;;;;;;;;;;;;;;;;;
2024/04/03 04:50:03;;;;;;;1.50;1.10;;;10.50;98.20;;;;;;4914435;29;20543;-85
2024/04/03 04:52:45;;;;;;;1.50;1.10;;;10.50;98.20;;;;;;4903106;29;20563;-87
2024/04/03 04:55:21;;;;;;;1.50;1.10;;;10.50;98.20;;;;;;4913145;29;20481;-87
2024/04/03 04:57:50;;;;;;;1.50;1.10;;;10.50;98.20;;;;;;4901874;29;20488;-88
2024/04/03 05:03:00;;;;;;;1.50;1.10;;;10.50;98.20;;;;;;4883935;29;20615;-87
2024/04/03 05:05:31;;;;;;;1.50;1.10;;;10.50;98.20;;;;;;4909867;29;20580;-88
2024/04/03 05:07:59;;;;;;;1.50;1.10;;;10.50;98.20;;;;;;4900765;29;20484;-88
2024/04/03 05:10:25;;;;;;;1.50;1.10;;;10.50;98.20;;;;;;4908922;29;20460;-87
2024/04/03 05:12:53;;;;;;;1.50;1.10;;;10.50;98.20;;;;;;4900451;29;20552;-88
2024/04/03 05:15:20;;;;;;;1.50;1.10;;;10.50;98.20;;;;;;4907440;29;20643;-85
2024/04/03 05:17:48;;;;;;;1.50;1.10;;;10.60;98.20;;;;;;4899796;29;20487;-87
2024/04/03 05:20:14;;;;;;;1.50;1.10;;;10.60;98.20;;;;;;4912120;29;20480;-87
2024/04/03 05:22:41;;;;;;;1.50;1.00;;;10.60;98.20;;;;;;4900482;29;21050;-87
2024/04/03 05:25:07;;;;;;;1.50;1.10;;;10.60;98.20;;;;;;4911857;29;20718;-87
2024/04/03 05:27:57;;;;;;;1.50;1.10;;;10.60;98.20;;;;;;4901818;29;21111;-86
2024/04/03 05:30:24;;;;;;;1.50;1.10;;;10.60;98.20;;;;;;4912499;29;20240;-86
2024/04/03 05:32:51;;;;;;;1.50;1.10;;;10.60;98.20;;;;;;4898299;29;20481;-88
2024/04/03 05:35:18;;;;;;;1.50;1.10;;;10.60;98.20;;;;;;4912253;29;20475;-87
2024/04/03 05:37:48;;;;;;;1.50;1.00;;;10.60;98.20;;;;;;4899498;29;21099;-87
2024/04/03 05:40:14;;;;;;;1.50;1.10;;;10.60;98.20;;;;;;4911200;29;20472;-87
2024/04/03 05:42:41;;;;;;;1.50;1.00;;;10.70;98.20;;;;;;4899052;29;20500;-87
2024/04/03 05:45:08;;;;;;;1.90;1.70;;;10.70;98.20;;;;;;4909761;29;20275;-88
2024/04/03 05:47:36;;;;;;;1.50;1.10;;;10.70;98.20;;;;;;4898954;29;20499;-87
2024/04/03 05:50:05;;;;;;;1.50;1.10;;;10.70;98.20;;;;;;4908967;29;20548;-87
2024/04/03 06:05:11;;;;;;;1.50;1.00;;;10.90;98.20;;;;;;4977717;23;20596;-88
2024/04/03 06:07:38;;;;;;;1.50;1.00;;;10.90;98.20;;;;;;4924350;28;20787;-87
2024/04/03 06:10:20;;;;;;;1.50;1.10;;;10.90;98.20;;;;;;4912941;28;20469;-83
2024/04/03 06:12:49;;;;;;;1.50;1.10;;;10.90;98.20;;;;;;4909891;29;20479;-85
2024/04/03 06:15:16;;;;;;;1.50;1.17;;;10.90;98.20;;;;;;4912044;29;20482;-84
2024/04/03 06:17:42;;;;;;;1.50;1.10;;;10.90;98.20;;;;;;4922662;29;20496;-85
2024/04/03 06:20:11;;;;;;;1.50;1.17;;;10.90;98.20;;;;;;4917359;29;20537;-84
2024/04/03 06:25:07;;;;;;;1.50;1.20;;;10.80;98.20;;;;;;5054243;23;20963;-85
2024/04/03 06:27:33;;;;;;;1.50;1.10;;;10.80;98.20;;;;;;4910464;28;20519;-86
2024/04/03 06:30:00;;;;;;;1.50;1.07;;;10.80;98.20;;;;;;4915875;29;20473;-87
2024/04/03 06:32:26;;;;;;;1.57;1.30;;;10.80;98.20;;;;;;4908545;29;21250;-86
2024/04/03 06:38:28;;;;;;;1.50;1.10;;;10.80;98.20;;;;;;4795276;29;20785;-87
2024/04/03 06:40:54;;;;;;;1.50;1.10;;;10.80;98.20;;;;;;4901784;29;20468;-86
2024/04/03 06:43:30;;;;;;;1.50;1.10;;;10.80;98.20;;;;;;4908674;29;20500;-86
2024/04/03 06:45:56;;;;;;;1.50;1.20;;;10.80;98.20;;;;;;4910710;29;20467;-86
2024/04/03 06:48:29;;;;;;;1.50;1.10;;;10.80;98.20;;;;;;4915167;29;20857;-85
2024/04/03 06:51:12;;;;;;;1.50;1.10;;;10.80;98.20;;;;;;4901806;29;20548;-85
2024/04/03 06:53:40;;;;;;;1.50;1.00;;;10.90;98.20;;;;;;4917861;29;20975;-85
2024/04/03 06:56:07;;;;;;;1.50;1.20;;;10.90;98.20;;;;;;4909081;29;20476;-87
2024/04/03 06:58:38;;;;;;;1.50;1.10;;;11.00;98.20;;;;;;4916850;29;20475;-84
2024/04/03 07:01:05;;;;;;;1.50;1.10;;;11.00;98.20;;;;;;4910991;29;20490;-86
2024/04/03 07:03:42;;;;;;;1.50;1.10;;;11.00;98.20;;;;;;4910964;29;20488;-85
2024/04/03 07:06:08;;;;;;;1.50;1.10;;;11.00;98.20;;;;;;4910191;29;20535;-86
2024/04/03 07:08:35;;;;;;;1.50;1.00;;;11.00;98.20;;;;;;4917326;29;20492;-87
2024/04/03 07:11:18;;;;;;;1.50;1.10;;;11.00;98.20;;;;;;4908515;29;20674;-87
2024/04/03 07:13:45;;;;;;;1.50;1.10;;;11.00;98.20;;;;;;4913283;29;20515;-86
2024/04/03 07:16:23;;;;;;;1.50;1.13;;;11.10;98.20;;;;;;4910348;29;20496;-85
2024/04/03 07:18:53;;;;;;;1.50;1.00;;;11.00;98.20;;;;;;4913899;29;20464;-86
2024/04/03 07:21:19;;;;;;;1.50;1.00;;;11.10;98.20;;;;;;4908509;29;20495;-86
2024/04/03 07:23:46;;;;;;;1.50;1.10;;;11.10;98.20;;;;;;4911655;29;20951;-85
2024/04/03 07:29:32;;;;;;;1.50;1.00;;;11.20;98.20;;;;;;4916679;29;20492;-85
2024/04/03 07:31:58;;;;;;;1.50;1.00;;;11.30;98.20;;;;;;4905898;29;20547;-86
2024/04/03 07:34:28;;;;;;;1.50;1.00;;;11.30;98.20;;;;;;4911189;29;20568;-87
2024/04/03 07:37:00;;;;;;;1.60;1.10;;;11.40;98.20;;;;;;4906861;29;20499;-86
2024/04/03 07:39:27;;;;;;;1.50;1.10;;;11.40;98.20;;;;;;4916882;29;20678;-87
2024/04/03 07:41:53;;;;;;;1.50;1.00;;;11.50;98.20;;;;;;4907009;29;20565;-86
2024/04/03 07:44:21;;;;;;;1.50;1.00;;;11.50;98.20;;;;;;4914887;29;20484;-86
2024/04/03 07:47:24;;;;;;;1.50;1.00;;;11.50;98.20;;;;;;4907240;29;20240;-86
2024/04/03 07:50:07;;;;;;;1.50;1.00;;;11.50;98.20;;;;;;4916489;29;20664;-84
2024/04/03 07:52:37;;;;;;;1.53;1.10;;;11.50;98.20;;;;;;4905738;29;20879;-86
2024/04/03 07:55:04;;;;;;;1.50;1.00;;;11.60;98.20;;;;;;4913183;29;20483;-85
2024/04/03 07:57:31;;;;;;;1.50;1.07;;;11.60;98.20;;;;;;4904102;29;20593;-85
2024/04/03 08:00:08;;;;;;;1.50;1.00;;;11.70;98.20;;;;;;4914454;29;20492;-86
2024/04/03 08:02:37;;;;;;;1.60;1.10;;;11.60;98.20;;;;;;4906002;29;21016;-86
2024/04/03 08:05:04;;;;;;;1.50;1.00;;;11.70;98.20;;;;;;4916106;29;20473;-86
2024/04/03 08:07:37;;;;;;;1.50;1.07;;;11.70;98.20;;;;;;4906534;28;20498;-85
2024/04/03 08:10:07;;;;;;;1.50;1.10;;;11.70;98.20;;;;;;4913342;29;20464;-86
2024/04/03 08:12:35;;;;;;;1.50;1.07;;;11.70;98.20;;;;;;4906948;29;20827;-86
2024/04/03 08:15:01;;;;;;;1.50;1.10;;;11.60;98.20;;;;;;4915874;29;20492;-84
2024/04/03 08:17:29;;;;;;;1.50;1.00;;;11.60;98.20;;;;;;4908394;29;20515;-87
2024/04/03 08:19:57;;;;;;;1.50;1.00;;;11.70;98.20;;;;;;4921029;29;20468;-86
2024/04/03 08:22:25;;;;;;;1.50;1.10;;;11.70;98.20;;;;;;4915592;29;20477;-86
2024/04/03 08:24:54;;;;;;;1.50;1.10;;;11.70;98.20;;;;;;4925788;29;20497;-85
2024/04/03 08:27:21;;;;;;;1.50;1.00;;;11.80;98.20;;;;;;4913056;29;20480;-87
2024/04/03 08:29:48;;;;;;;1.50;1.00;;;11.90;98.20;;;;;;4926497;29;20460;-87
2024/04/03 08:32:16;;;;;;;1.50;1.10;;;12.00;98.20;;;;;;4921572;29;20487;-89
2024/04/03 08:34:42;;;;;;;1.50;1.10;;;12.10;98.20;;;;;;4921424;29;20575;-87
2024/04/03 08:39:56;;;;;;;1.50;1.10;;;12.40;98.20;;;;;;4919810;29;20464;-87
2024/04/03 08:42:23;;;;;;;1.50;1.00;;;12.50;98.20;;;;;;4915836;29;20485;-85
2024/04/03 08:44:50;;;;;;;1.50;1.00;;;12.50;98.20;;;;;;4911246;29;20489;-85
2024/04/03 08:47:18;;;;;;;1.50;1.00;;;12.50;98.20;;;;;;4916553;28;20543;-87
2024/04/03 08:49:51;;;;;;;1.50;1.00;;;12.60;98.20;;;;;;4909481;29;21065;-85
2024/04/03 08:52:25;;;;;;;1.50;1.00;;;12.60;98.20;;;;;;4906533;29;20476;-84
2024/04/03 08:54:54;;;;;;;1.50;1.10;;;12.70;98.20;;;;;;4922730;29;20494;-85
2024/04/03 08:57:22;;;;;;;1.50;1.00;;;12.70;98.20;;;;;;4906448;29;20498;-83
2024/04/03 08:59:49;;;;;;;1.60;1.20;;;12.70;98.20;;;;;;4913445;29;20473;-84
2024/04/03 09:02:15;;;;;;;1.50;1.00;;;12.60;98.20;;;;;;4908673;29;20484;-85
2024/04/03 09:04:42;;;;;;;1.50;1.20;;;12.60;98.20;;;;;;4915181;29;20523;-84
2024/04/03 09:07:19;;;;;;;1.50;1.00;;;12.60;98.20;;;;;;4912789;29;20572;-87
2024/04/03 09:09:47;;;;;;;1.50;1.00;;;12.60;98.20;;;;;;4915338;29;20503;-85
2024/04/03 09:12:13;;;;;;;1.50;1.00;;;12.60;98.20;;;;;;4909093;29;20880;-86
2024/04/03 09:14:51;;;;;;;1.50;1.10;;;12.60;98.20;;;;;;4914318;29;20560;-85
2024/04/03 09:17:17;;;;;;;1.50;1.00;;;12.60;98.20;;;;;;4910146;29;20798;-85
2024/04/03 09:19:52;;;;;;;1.50;1.00;;;12.50;98.20;;;;;;4918331;29;20491;-86
2024/04/03 09:25:30;;;;;;;1.50;0.93;;;12.50;98.20;;;;;;4520975;26;20664;-86
2024/04/03 09:28:02;;;;;;;1.50;1.00;;;12.50;98.20;;;;;;4914376;29;20487;-85
2024/04/03 09:30:30;;;;;;;1.50;1.10;;;12.50;98.20;;;;;;4917539;29;20575;-85
2024/04/03 09:33:02;;;;;;;1.50;1.00;;;12.50;98.20;;;;;;4913517;29;20680;-85
2024/04/03 09:35:37;;;;;;;1.50;1.00;;;12.60;98.20;;;;;;4895639;29;20819;-86
2024/04/03 09:38:06;;;;;;;1.50;1.10;;;12.50;98.20;;;;;;4892228;29;20481;-85
2024/04/03 09:41:08;;;;;;;1.50;1.00;;;12.60;98.20;;;;;;4900788;29;20497;-85
2024/04/03 09:43:40;;;;;;;1.50;1.00;;;12.70;98.20;;;;;;4887315;29;21048;-86
2024/04/03 09:46:24;;;;;;;1.70;1.50;;;12.70;98.20;;;;;;4889008;29;20499;-86
2024/04/03 09:48:54;;;;;;;1.50;1.00;;;12.80;98.20;;;;;;4894937;29;21051;-88
2024/04/03 09:51:22;;;;;;;1.50;1.00;;;12.80;98.20;;;;;;4887114;29;20956;-87
2024/04/03 09:53:48;;;;;;;1.50;1.10;;;12.80;98.20;;;;;;4907968;29;20513;-84
2024/04/03 09:56:40;;;;;;;1.50;1.00;;;12.80;98.20;;;;;;4889611;29;20477;-86
2024/04/03 10:02:12;;;;;;;1.50;1.00;;;12.90;98.20;;;;;;4839188;29;20522;-84
2024/04/03 10:04:41;;;;;;;1.50;1.00;;;13.00;98.20;;;;;;4902301;29;20516;-85
2024/04/03 10:07:16;;;;;;;1.50;1.00;;;13.10;98.20;;;;;;4897985;29;21011;-82
2024/04/03 10:09:42;;;;;;;1.50;1.03;;;13.20;98.20;;;;;;4902705;29;20729;-87
2024/04/03 10:12:19;;;;;;;1.50;1.00;;;13.20;98.20;;;;;;4895758;29;20559;-85
2024/04/03 10:15:03;;;;;;;1.50;0.90;;;13.30;98.20;;;;;;4902767;29;20289;-86
2024/04/03 10:17:39;;;;;;;1.50;1.00;;;13.30;98.20;;;;;;4890903;29;20485;-82
2024/04/03 10:20:07;;;;;;;1.50;1.00;;;13.30;98.20;;;;;;4901580;29;20492;-85
2024/04/03 10:25:56;;;;;;;1.50;0.90;;;13.60;98.20;;;;;;4969744;23;20508;-85
2024/04/03 10:28:33;;;;;;;1.50;0.90;;;13.80;98.20;;;;;;4882835;29;21051;-85
2024/04/03 10:31:02;;;;;;;1.70;1.40;;;13.90;98.20;;;;;;4912988;29;20540;-86
2024/04/03 10:33:28;;;;;;;1.50;1.00;;;13.90;98.20;;;;;;4909494;29;21001;-85
2024/04/03 10:35:56;;;;;;;1.60;1.20;;;14.00;98.20;;;;;;4905042;29;20826;-84
2024/04/03 10:38:23;;;;;;;1.50;1.00;;;13.90;98.20;;;;;;4917411;29;20469;-84
2024/04/03 10:41:32;;;;;;;1.50;1.00;;;13.90;98.20;;;;;;4919188;29;20468;-86
2024/04/03 10:43:58;;;;;;;1.50;0.90;;;13.90;98.20;;;;;;4856408;29;20593;-86
2024/04/03 10:46:31;;;;;;;1.50;0.90;;;13.80;98.20;;;;;;4912089;29;20548;-84
2024/04/03 10:48:58;;;;;;;1.50;1.00;;;13.80;98.20;;;;;;4914120;29;20501;-84
2024/04/03 10:51:40;;;;;;;1.50;0.97;;;13.80;98.20;;;;;;4913012;29;20501;-83
2024/04/03 10:54:07;;;;;;;1.50;0.90;;;13.70;98.20;;;;;;4910540;29;20484;-85
2024/04/03 10:56:37;;;;;;;1.50;1.00;;;13.60;98.20;;;;;;4912112;29;20473;-84
2024/04/03 10:59:08;;;;;;;1.50;1.00;;;13.60;98.20;;;;;;4928039;29;20460;-84
2024/04/03 11:15:29;;;;;;;1.50;1.00;;;13.50;98.20;;;;;;4927751;23;21267;-87
2024/04/03 11:17:55;;;;;;;1.50;1.00;;;13.60;98.20;;;;;;4901244;29;20513;-86
2024/04/03 11:24:03;;;;;;;1.53;1.10;;;13.70;98.20;;;;;;4884186;29;20241;-87
2024/04/03 11:27:17;;;;;;;1.50;1.00;;;13.80;98.20;;;;;;4893593;29;20563;-86
2024/04/03 11:29:43;;;;;;;1.50;1.00;;;13.80;98.20;;;;;;4886369;29;20896;-88
2024/04/03 11:32:13;;;;;;;1.50;1.00;;;13.90;98.20;;;;;;4892122;29;20577;-85
2024/04/03 11:34:39;;;;;;;1.50;1.00;;;13.90;98.20;;;;;;4898693;29;20866;-86
2024/04/03 11:37:08;;;;;;;1.50;0.93;;;13.80;98.20;;;;;;4890377;29;20557;-86
2024/04/03 11:39:54;;;;;;;1.50;1.00;;;13.80;98.20;;;;;;4900931;29;20457;-86
2024/04/03 11:42:24;;;;;;;1.50;1.10;;;13.70;98.20;;;;;;4888379;29;21028;-85
2024/04/03 11:44:53;;;;;;;1.50;0.90;;;13.70;98.20;;;;;;4897733;29;20489;-85
2024/04/03 11:47:51;;;;;;;1.50;1.00;;;13.60;98.20;;;;;;4891842;29;20513;-86
2024/04/03 11:53:49;;;;;;;1.50;1.00;;;13.60;98.20;;;;;;4845972;29;20508;-90
2024/04/03 12:02:22;;;;;;;1.50;1.00;;;13.60;98.20;;;;;;4837878;29;20478;-88
2024/04/03 12:05:07;;;;;;;1.50;1.10;;;13.60;98.20;;;;;;4902631;29;20627;-87
2024/04/03 12:07:36;;;;;;;1.50;0.90;;;13.60;98.20;;;;;;4894148;29;20486;-85
2024/04/03 12:10:06;;;;;;;1.50;0.90;;;13.60;98.20;;;;;;4890908;29;20470;-84
2024/04/03 12:12:34;;;;;;;1.50;1.00;;;13.70;98.20;;;;;;4891756;29;20493;-84
2024/04/03 12:15:00;;;;;;;1.50;0.90;;;13.70;98.20;;;;;;4898813;29;20501;-85
2024/04/03 12:17:27;;;;;;;1.50;1.00;;;13.60;98.20;;;;;;4894758;29;20489;-86
2024/04/03 12:20:06;;;;;;;1.50;0.90;;;13.50;98.20;;;;;;4904001;29;20449;-86
2024/04/03 12:22:43;;;;;;;1.50;0.90;;;13.40;98.20;;;;;;4883464;29;20598;-83
2024/04/03 12:25:09;;;;;;;1.50;1.00;;;13.40;98.20;;;;;;4901740;29;20477;-84
2024/04/03 12:27:36;;;;;;;1.50;0.90;;;13.40;98.20;;;;;;4901287;29;20968;-84
2024/04/03 12:30:02;;;;;;;1.50;1.10;;;13.40;98.20;;;;;;4909157;29;20610;-84
2024/04/03 12:32:29;;;;;;;1.50;1.00;;;13.50;98.20;;;;;;4892794;29;20542;-84
2024/04/03 12:34:57;;;;;;;1.50;1.00;;;13.50;98.20;;;;;;4901189;29;20262;-85
2024/04/03 12:37:24;;;;;;;1.50;1.00;;;13.40;98.20;;;;;;4895888;29;20677;-86
2024/04/03 12:40:34;;;;;;;1.50;0.90;;;13.40;98.20;;;;;;4913899;29;20465;-84
2024/04/03 12:43:34;;;;;;;1.50;1.00;;;13.30;98.20;;;;;;4878842;29;20863;-83
2024/04/03 12:46:12;;;;;;;1.50;1.00;;;13.30;98.20;;;;;;4885230;29;20470;-84
2024/04/03 12:48:40;;;;;;;1.50;1.00;;;13.30;98.20;;;;;;4895029;29;21027;-85
2024/04/03 12:51:07;;;;;;;1.50;1.00;;;13.30;98.20;;;;;;4883142;29;20927;-84
2024/04/03 12:53:46;;;;;;;1.50;1.00;;;13.20;98.20;;;;;;4899443;29;20534;-85
2024/04/03 12:56:12;;;;;;;1.50;1.00;;;13.20;98.20;;;;;;4885470;29;20566;-84
2024/04/03 12:58:39;;;;;;;1.50;1.10;;;13.20;98.20;;;;;;4904101;29;20477;-85
2024/04/03 13:01:08;;;;;;;1.50;1.00;;;13.10;98.20;;;;;;4890150;29;20225;-85
2024/04/03 13:03:37;;;;;;;1.50;0.97;;;13.20;98.20;;;;;;4901585;29;20515;-83
2024/04/03 13:06:07;;;;;;;1.50;0.90;;;13.10;98.20;;;;;;4888584;29;20476;-84
2024/04/03 13:08:43;;;;;;;1.50;1.00;;;13.10;98.20;;;;;;4903698;29;20533;-85
2024/04/03 13:11:09;;;;;;;1.50;1.00;;;13.00;98.20;;;;;;4888285;29;20592;-84
2024/04/03 13:13:36;;;;;;;1.50;1.00;;;13.00;98.20;;;;;;4903107;29;20529;-86
2024/04/03 13:16:04;;;;;;;1.50;0.90;;;13.00;98.20;;;;;;4891536;29;20260;-86
2024/04/03 13:18:35;;;;;;;1.50;0.97;;;13.00;98.20;;;;;;4898569;29;20473;-85
2024/04/03 13:21:02;;;;;;;1.50;1.00;;;13.00;98.20;;;;;;4884057;29;20746;-86
2024/04/03 13:23:34;;;;;;;1.50;0.90;;;13.00;98.20;;;;;;4898361;29;20481;-86
2024/04/03 13:26:00;;;;;;;1.73;1.63;;;13.00;98.20;;;;;;4882574;29;20560;-87
2024/04/03 13:28:27;;;;;;;1.50;1.00;;;13.10;98.20;;;;;;4903926;29;21155;-86
2024/04/03 13:31:08;;;;;;;1.50;1.00;;;13.10;98.20;;;;;;4886372;29;20208;-85
2024/04/03 13:33:35;;;;;;;1.50;1.00;;;13.00;98.20;;;;;;4898657;29;20854;-86
2024/04/03 13:36:01;;;;;;;1.50;1.00;;;13.00;98.20;;;;;;4887004;29;20553;-87
2024/04/03 13:38:54;;;;;;;1.50;1.00;;;13.10;98.20;;;;;;4897165;29;20541;-86
2024/04/03 13:41:23;;;;;;;1.50;1.00;;;13.10;98.20;;;;;;4886532;29;20248;-85
2024/04/03 13:44:41;;;;;;;1.50;1.00;;;13.10;98.20;;;;;;4896078;29;20844;-87
2024/04/03 13:56:23;;;;;;;1.50;1.00;;;13.30;98.20;;;;;;4872788;29;20474;-86
2024/04/03 14:02:45;;;;;;;1.50;1.00;;;13.40;98.20;;;;;;4851689;29;20489;-84
2024/04/03 14:44:54;;;;;;;1.53;0.90;;;15.80;98.20;;;;;;4852714;29;21739;-85
2024/04/03 14:47:46;;;;;;;1.50;0.90;;;16.20;98.20;;;;;;4862369;29;20485;-87
2024/04/03 14:50:26;;;;;;;1.53;0.90;;;16.50;98.20;;;;;;4885916;29;20477;-84
2024/04/03 14:53:18;;;;;;;;;;;;;;;;;;;;;
2024/04/03 14:56:44;;;;;;;1.50;0.90;;;16.90;98.20;;;;;;4887146;29;20851;-86
2024/04/03 14:59:11;;;;;;;1.50;1.10;;;17.00;98.20;;;;;;4862722;29;20554;-84
2024/04/03 15:02:06;;;;;;;1.50;0.90;;;16.90;98.20;;;;;;4868720;29;20513;-86
2024/04/03 15:04:32;;;;;;;1.50;0.90;;;16.70;98.20;;;;;;4866092;29;20512;-86
2024/04/03 15:09:41;;;;;;;1.50;1.00;;;16.40;98.20;;;;;;4859475;29;20474;-85
2024/04/03 15:12:10;;;;;;;1.50;0.90;;;16.20;98.20;;;;;;4887953;29;20470;-82